createdAt,value
2022-08-21T08:06:42.563Z,0.50
2022-08-21T08:09:26.334Z,0.63
2022-08-21T08:12:54.352Z,0.57
2022-08-21T08:24:18.998Z,0.50
2022-08-21T08:54:46.657Z,0.82
2022-08-21T08:57:50.295Z,0.60
2022-08-21T09:00:48.395Z,0.55
2022-08-21T09:03:19.663Z,0.63
2022-08-21T09:10:06.694Z,0.63
2022-08-21T09:12:47.947Z,0.63
2022-08-21T09:15:55.764Z,0.50
2022-08-21T09:23:33.523Z,0.60
2022-08-21T09:26:26.722Z,0.50
2022-08-21T09:29:01.903Z,0.70
2022-08-21T09:35:24.651Z,0.70
2022-08-21T09:40:35.027Z,0.70
2022-08-21T09:57:42.856Z,0.90
2022-08-21T16:18:02.703Z,0.75
2022-08-21T16:41:06.964Z,0.70
2022-08-21T16:54:12.429Z,0.60
2022-08-21T16:56:44.563Z,0.70
2022-08-21T17:01:47.971Z,0.82
2022-08-21T17:04:15.609Z,0.90
2022-08-21T17:06:44.132Z,0.63
2022-08-21T17:09:12.517Z,0.57
2022-08-21T17:11:47.653Z,0.60
2022-08-21T17:14:23.756Z,0.60
2022-08-21T17:16:54.971Z,0.70
2022-08-21T17:19:22.980Z,0.80
2022-08-21T17:21:50.581Z,0.90
2022-08-21T17:24:18.128Z,1.35
2022-08-21T17:26:46.174Z,1.60
2022-08-21T17:29:16.006Z,1.00
2022-08-21T17:31:44.548Z,0.90
2022-08-21T17:34:12.931Z,0.82
2022-08-21T17:36:42.812Z,0.80
2022-08-21T17:39:11.024Z,0.90
2022-08-21T17:41:41.070Z,0.80
2022-08-21T17:44:11.713Z,0.90
2022-08-21T17:46:41.855Z,0.90
2022-08-21T17:49:12.075Z,0.70
2022-08-21T17:51:39.783Z,0.70
2022-08-21T17:54:07.323Z,1.00
2022-08-21T17:56:37.592Z,0.85
2022-08-21T17:59:06.180Z,0.77
2022-08-21T18:01:38.180Z,0.80
2022-08-21T18:04:06.256Z,0.70
2022-08-21T18:06:36.980Z,0.90
2022-08-21T18:09:05.734Z,0.80
2022-08-21T18:11:34.708Z,0.93
2022-08-21T18:14:07.604Z,0.88
2022-08-21T18:16:37.464Z,0.80
2022-08-21T18:19:09.716Z,1.08
2022-08-21T18:21:37.383Z,1.00
2022-08-21T18:24:05.242Z,0.90
2022-08-21T18:26:38.012Z,1.10
2022-08-21T18:29:08.924Z,1.23
2022-08-21T18:31:38.290Z,0.80
2022-08-21T18:34:27.926Z,1.08
2022-08-21T18:36:57.844Z,1.10
2022-08-21T18:39:36.404Z,1.10
2022-08-21T18:42:09.175Z,1.40
2022-08-21T18:44:37.628Z,2.05
2022-08-21T18:47:11.352Z,1.90
2022-08-21T18:49:40.205Z,1.90
2022-08-21T18:52:09.752Z,1.45
2022-08-21T18:54:37.509Z,1.42
2022-08-21T18:57:13.590Z,2.13
2022-08-21T18:59:43.593Z,2.42
2022-08-21T19:02:10.933Z,2.30
2022-08-21T19:04:44.540Z,2.10
2022-08-21T19:07:14.092Z,2.20
2022-08-21T19:09:52.730Z,2.00
2022-08-21T19:12:29.990Z,1.45
2022-08-21T19:14:59.105Z,1.30
2022-08-21T19:17:27.362Z,1.25
2022-08-21T19:20:01.507Z,1.35
2022-08-21T19:22:31.939Z,1.63
2022-08-21T19:25:00.414Z,1.50
2022-08-21T19:27:27.887Z,1.20
2022-08-21T19:29:55.298Z,1.10
2022-08-21T19:32:23.626Z,1.00
2022-08-21T19:34:51.453Z,1.15
2022-08-21T19:37:20.466Z,1.20
2022-08-21T19:39:50.219Z,0.98
2022-08-21T19:45:11.701Z,1.00
2022-08-21T19:50:17.381Z,1.20
2022-08-21T19:52:50.764Z,1.40
2022-08-21T19:55:25.898Z,0.93
2022-08-21T19:57:54.640Z,1.40
2022-08-21T20:00:22.467Z,1.27
2022-08-21T20:02:53.949Z,1.20
2022-08-21T20:05:24.944Z,1.30
2022-08-21T20:08:03.958Z,1.52
2022-08-21T20:10:31.858Z,1.50
2022-08-21T20:12:59.931Z,1.60
2022-08-21T20:15:28.237Z,1.35
2022-08-21T20:17:55.783Z,1.30
2022-08-21T20:20:23.193Z,1.58
2022-08-21T20:22:50.773Z,1.52
2022-08-21T20:25:21.297Z,1.75
2022-08-21T20:27:51.632Z,1.40
2022-08-21T20:30:22.694Z,1.33
2022-08-21T20:32:50.586Z,1.10
2022-08-21T20:35:18.820Z,1.98
2022-08-21T20:37:58.898Z,1.58
2022-08-21T20:40:32.596Z,1.50
2022-08-21T20:45:33.265Z,1.70
2022-08-21T20:48:12.009Z,1.30
2022-08-21T20:50:44.609Z,1.67
2022-08-21T20:53:51.315Z,1.70
2022-08-21T20:56:48.240Z,2.28
2022-08-21T20:59:35.303Z,2.20
2022-08-21T21:02:14.765Z,2.20
2022-08-21T21:04:52.444Z,1.80
2022-08-21T21:07:32.545Z,1.17
2022-08-21T21:10:03.972Z,1.20
2022-08-21T21:15:31.566Z,1.20
2022-08-21T21:18:13.060Z,0.90
2022-08-21T21:20:53.749Z,1.15
2022-08-21T21:23:36.743Z,1.00
2022-08-21T21:26:16.440Z,1.00
2022-08-21T21:29:18.966Z,1.05
2022-08-21T21:31:46.930Z,1.00
2022-08-21T21:34:17.070Z,1.05
2022-08-21T21:39:59.024Z,0.93
2022-08-21T21:42:32.388Z,1.08
2022-08-21T21:45:14.652Z,1.17
2022-08-21T21:47:57.756Z,1.00
2022-08-21T21:51:00.680Z,0.90
2022-08-21T21:54:23.142Z,0.80
2022-08-21T21:57:06.221Z,1.00
2022-08-21T21:59:51.652Z,1.10
2022-08-21T22:02:43.238Z,1.10
2022-08-21T22:05:26.694Z,1.05
2022-08-21T22:08:08.039Z,0.82
2022-08-21T22:10:46.188Z,0.85
2022-08-21T22:13:52.422Z,0.90
2022-08-21T22:16:20.579Z,0.90
2022-08-21T22:18:58.705Z,1.10
2022-08-21T22:21:36.292Z,1.10
2022-08-21T22:24:15.330Z,1.00
2022-08-21T22:26:49.040Z,0.82
2022-08-21T22:29:21.925Z,0.80
2022-08-21T22:32:10.556Z,1.17
2022-08-21T22:34:39.842Z,0.90
2022-08-21T22:37:11.301Z,0.88
2022-08-21T22:39:42.543Z,0.95
2022-08-21T22:42:22.088Z,0.85
2022-08-21T22:44:53.362Z,1.00
2022-08-21T22:47:25.858Z,1.00
2022-08-21T22:49:54.744Z,1.20
2022-08-21T22:52:29.461Z,1.20
2022-08-21T22:55:00.595Z,0.80
2022-08-21T22:57:31.749Z,1.17
2022-08-21T23:00:11.148Z,1.20
2022-08-21T23:02:51.967Z,1.20
2022-08-21T23:05:31.274Z,1.10
2022-08-21T23:08:01.395Z,1.02
2022-08-21T23:10:41.653Z,1.30
2022-08-21T23:13:13.465Z,1.20
2022-08-21T23:15:51.252Z,1.33
2022-08-21T23:18:37.313Z,1.10
2022-08-21T23:21:23.501Z,1.23
2022-08-21T23:24:19.852Z,1.10
2022-08-21T23:30:14.901Z,1.17
2022-08-21T23:33:04.263Z,1.48
2022-08-21T23:36:11.895Z,1.10
2022-08-21T23:38:47.783Z,1.63
2022-08-21T23:41:36.126Z,1.50
2022-08-21T23:44:25.209Z,1.35
2022-08-21T23:47:34.879Z,1.75
2022-08-21T23:50:14.196Z,1.50
2022-08-21T23:52:59.157Z,1.40
2022-08-21T23:55:45.260Z,1.30
2022-08-21T23:58:12.757Z,1.30
